الصفحة الرئيسية
METAR-TAF:

METAR-TAF

مطار :

أرنهيم, هولندا

دائرة عرض: 52-04N, خط طول: 005-53E, ارتفاع: 48 متر

مراقبة الطقس الحالي

تاريخ ووقت الإصدار 42 دقيقة قبل الساعة 00:55UTC
ريح 1 عقدةمن اتجاهات متغيرة
درجة الحرارة 6°درجة مئوية
الرطوبة 100%
ضغط 1037 hPa
الرؤية 10 كم أو أكثر
غيوم قليلة على ارتفاع 3700 قدم
ملبد بالغيوم على ارتفاع 5500 قدم

METAR: EHDL 250055Z AUTO VRB01KT 9999 FEW037 OVC055 06/06 Q1037 BLU

زمن: 03:37 (01:37 UTC)

توقعات

تاريخ ووقت الإصدار 13ساعات و 20 دقيقة قبل الساعة 12:17UTC
التوقعات صالحة من24 الساعة 13 UTC إلى 25 الساعة 01 UTC
ريح 8 عقدة من الشمال الغربي
الرؤية 10 كم أو أكثر
غيوم قليلة على ارتفاع 3000 قدم
غيوم متفرقة على ارتفاع 5000 قدم
مؤقت
من 24 الساعة 13 UTC إلى 24 الساعة 18 UTC
ريح 12 عقدة من الشمال/الشمال الغربي تتزايد حتى 22 عقدة
غيوم قليلة على ارتفاع 2500 قدم, مزنة ركامية.
غيوم مفككة على ارتفاع 3000 قدم
أصبح
من 24 الساعة 17 UTC إلى 24 الساعة 19 UTC
ريح 5 عقدة من الغرب

TAF: EHDL 241217Z 2413/2501 32008KT 9999 FEW030 SCT050 TEMPO 2413/2418 33012G22KT FEW025CB BKN030 BECMG 2417/2419 27005KT

أرصاد الطقس والتوقعات من أكثر من 4000 مطار (تقارير الطقس للمطار METAR والتنبؤ بالطقس بالمطارTAF).

المحطات المتاحة هي النقط الصفراء والحمراء على الخريطة.

حرك المؤشر فوق النقطة لمعرفة اسم المحطة.

ثم انقر لمعرفة أرصاد وتوقعات الطقس.

لتغيير الخارطة: اضغط على الأزرار الخضراء مع رمز الصليب الأسود للتكبير. على الزر الأخضر مع شرطة للتصغير، أو على الأسهم الخضراء للخرائط المجاورة.


METAR-TAF: